createdAt,value
2022-09-25T00:00:37.763Z,2.47
2022-09-25T00:02:39.432Z,2.22
2022-09-25T00:04:41.974Z,2.17
2022-09-25T00:06:43.689Z,2.13
2022-09-25T00:08:46.503Z,2.28
2022-09-25T00:10:50.800Z,2.10
2022-09-25T00:12:52.460Z,2.50
2022-09-25T00:14:54.165Z,2.38
2022-09-25T00:16:56.729Z,2.15
2022-09-25T00:19:18.094Z,1.98
2022-09-25T00:21:19.778Z,1.92
2022-09-25T00:23:21.375Z,2.50
2022-09-25T00:25:22.955Z,2.40
2022-09-25T00:27:24.569Z,2.50
2022-09-25T00:29:26.178Z,2.03
2022-09-25T00:31:29.294Z,2.50
2022-09-25T00:33:32.580Z,2.28
2022-09-25T00:35:34.197Z,2.20
2022-09-25T00:37:36.803Z,2.22
2022-09-25T00:39:38.526Z,1.85
2022-09-25T00:41:40.343Z,2.33
2022-09-25T00:43:47.716Z,2.15
2022-09-25T00:45:49.477Z,2.20
2022-09-25T00:47:59.872Z,1.83
2022-09-25T00:50:04.637Z,1.90
2022-09-25T00:52:10.584Z,2.10
2022-09-25T00:54:23.407Z,2.35
2022-09-25T00:56:26.343Z,2.40
2022-09-25T00:58:30.948Z,2.40
2022-09-25T01:00:33.320Z,2.17
2022-09-25T01:02:39.539Z,2.45
2022-09-25T01:04:46.007Z,2.10
2022-09-25T01:06:49.424Z,2.30
2022-09-25T01:08:53.351Z,1.90
2022-09-25T01:10:55.666Z,2.00
2022-09-25T01:12:59.916Z,1.95
2022-09-25T01:15:01.553Z,2.17
2022-09-25T01:17:14.971Z,1.80
2022-09-25T01:19:52.922Z,2.17
2022-09-25T01:22:02.345Z,2.10
2022-09-25T01:24:32.061Z,2.20
2022-09-25T01:27:06.345Z,2.03
2022-09-25T01:29:18.936Z,1.90
2022-09-25T01:32:02.934Z,2.45
2022-09-25T01:34:19.011Z,2.03
2022-09-25T01:36:33.848Z,2.10
2022-09-25T01:38:43.899Z,1.70
2022-09-25T01:40:50.398Z,2.25
2022-09-25T01:42:59.068Z,1.95
2022-09-25T01:45:09.426Z,1.88
2022-09-25T01:47:18.636Z,1.90
2022-09-25T01:49:37.726Z,2.38
2022-09-25T01:51:43.696Z,2.35
2022-09-25T01:53:55.565Z,2.28
2022-09-25T01:56:04.428Z,1.90
2022-09-25T01:58:30.459Z,2.17
2022-09-25T02:00:32.744Z,2.30
2022-09-25T02:02:55.253Z,2.42
2022-09-25T02:05:09.316Z,1.80
2022-09-25T02:07:20.995Z,2.22
2022-09-25T02:09:38.791Z,1.85
2022-09-25T02:11:47.971Z,1.90
2022-09-25T02:13:58.068Z,2.28
2022-09-25T02:16:04.561Z,2.00
2022-09-25T02:18:28.759Z,2.13
2022-09-25T02:20:32.996Z,1.88
2022-09-25T02:22:35.853Z,2.42
2022-09-25T02:25:03.975Z,2.10
2022-09-25T02:27:06.080Z,2.10
2022-09-25T02:29:08.858Z,2.20
2022-09-25T02:31:13.545Z,2.20
2022-09-25T02:33:15.477Z,2.30
2022-09-25T02:35:17.297Z,2.40
2022-09-25T02:37:18.962Z,2.03
2022-09-25T02:39:24.695Z,2.08
2022-09-25T02:42:03.212Z,2.08
2022-09-25T02:44:43.416Z,1.92
2022-09-25T02:47:01.787Z,2.25
2022-09-25T02:49:29.451Z,1.95
2022-09-25T02:51:37.440Z,1.70
2022-09-25T02:53:57.477Z,2.03
2022-09-25T02:56:08.499Z,2.45
2022-09-25T03:00:18.009Z,1.90
2022-09-25T03:02:21.842Z,1.80
2022-09-25T03:04:25.020Z,2.03
2022-09-25T03:06:27.821Z,1.80
2022-09-25T03:08:39.140Z,2.00
2022-09-25T03:10:41.866Z,1.95
2022-09-25T03:12:43.476Z,1.92
2022-09-25T03:14:45.062Z,1.85
2022-09-25T03:16:50.096Z,1.98
2022-09-25T03:18:51.889Z,2.10
2022-09-25T03:20:53.710Z,2.15
2022-09-25T03:22:55.303Z,1.90
2022-09-25T03:24:56.890Z,1.70
2022-09-25T03:26:58.628Z,2.17
2022-09-25T03:29:02.366Z,1.83
2022-09-25T03:31:08.257Z,2.03
2022-09-25T03:33:11.291Z,2.40
2022-09-25T03:35:12.988Z,1.95
2022-09-25T03:37:14.883Z,2.03
2022-09-25T03:39:17.806Z,1.80
2022-09-25T03:41:21.935Z,2.05
2022-09-25T03:43:24.908Z,1.80
2022-09-25T03:45:27.988Z,2.20
2022-09-25T03:47:29.697Z,2.03
2022-09-25T03:49:31.706Z,1.83
2022-09-25T03:51:34.892Z,2.25
2022-09-25T03:53:37.553Z,1.85
2022-09-25T03:55:39.169Z,1.80
2022-09-25T03:57:41.538Z,1.90
2022-09-25T03:59:43.159Z,1.85
2022-09-25T04:01:47.910Z,1.75
2022-09-25T04:03:50.485Z,1.40
2022-09-25T04:05:52.115Z,1.92
2022-09-25T04:07:53.700Z,1.80
2022-09-25T04:09:55.288Z,1.90
2022-09-25T04:11:56.904Z,1.80
2022-09-25T04:13:58.855Z,1.52
2022-09-25T04:16:02.228Z,1.90
2022-09-25T04:18:06.273Z,1.90
2022-09-25T04:20:08.372Z,1.75
2022-09-25T04:22:10.023Z,2.00
2022-09-25T04:24:30.414Z,1.80
2022-09-25T04:26:32.465Z,1.98
2022-09-25T04:28:34.206Z,1.48
2022-09-25T04:30:36.282Z,1.88
2022-09-25T04:32:56.631Z,1.77
2022-09-25T04:34:58.469Z,2.08
2022-09-25T04:37:00.804Z,2.08
2022-09-25T04:39:02.403Z,1.88
2022-09-25T04:41:05.587Z,1.70
2022-09-25T04:43:07.578Z,1.90
2022-09-25T04:45:09.536Z,1.70
2022-09-25T04:47:11.427Z,1.67
2022-09-25T04:49:13.083Z,1.90
2022-09-25T04:51:14.748Z,2.03
2022-09-25T04:53:16.379Z,2.10
2022-09-25T04:55:19.749Z,2.50
2022-09-25T04:57:45.483Z,2.08
2022-09-25T04:59:45.037Z,3.45
2022-09-25T05:01:48.208Z,2.53
2022-09-25T05:03:53.920Z,2.55
2022-09-25T05:05:55.934Z,2.55
2022-09-25T05:08:02.355Z,3.00
2022-09-25T05:10:04.470Z,3.03
2022-09-25T05:12:06.914Z,3.17
2022-09-25T05:14:08.988Z,3.47
2022-09-25T05:16:10.627Z,3.00
2022-09-25T05:18:21.245Z,2.55
2022-09-25T05:20:22.863Z,2.92
2022-09-25T05:22:24.436Z,2.85
2022-09-25T05:24:26.038Z,3.25
2022-09-25T05:26:29.640Z,3.28
2022-09-25T05:28:32.675Z,2.65
2022-09-25T05:30:36.215Z,2.75
2022-09-25T05:32:37.836Z,2.40
2022-09-25T05:34:39.474Z,2.67
2022-09-25T05:36:41.122Z,3.03
2022-09-25T05:38:42.725Z,2.45
2022-09-25T05:40:44.494Z,2.40
2022-09-25T05:42:46.724Z,2.63
2022-09-25T05:44:48.575Z,2.63
2022-09-25T05:46:50.589Z,2.85
2022-09-25T05:48:52.229Z,3.10
2022-09-25T05:50:55.621Z,2.70
2022-09-25T05:52:58.343Z,2.95
2022-09-25T05:55:00.783Z,2.78
2022-09-25T05:57:02.748Z,2.97
2022-09-25T05:59:04.416Z,2.42
2022-09-25T06:01:06.602Z,2.72
2022-09-25T06:03:08.942Z,3.05
2022-09-25T06:05:10.716Z,2.88
2022-09-25T06:07:12.345Z,3.55
2022-09-25T06:09:13.927Z,2.95
2022-09-25T06:11:15.605Z,2.60
2022-09-25T06:13:17.217Z,2.47
2022-09-25T06:15:18.994Z,2.88
2022-09-25T06:17:20.670Z,2.08
2022-09-25T06:19:22.249Z,2.72
2022-09-25T06:21:23.857Z,2.67
2022-09-25T06:23:25.478Z,3.03
2022-09-25T06:25:29.404Z,2.45
2022-09-25T06:27:31.291Z,2.47
2022-09-25T06:29:32.896Z,2.80
2022-09-25T06:31:35.271Z,2.70
2022-09-25T06:33:36.980Z,2.92
2022-09-25T06:35:48.611Z,2.78
2022-09-25T06:37:50.197Z,2.60
2022-09-25T06:39:51.817Z,2.53
2022-09-25T06:41:53.910Z,2.90
2022-09-25T06:43:55.501Z,3.17
2022-09-25T06:46:02.365Z,2.70
2022-09-25T06:48:10.037Z,2.78
2022-09-25T06:50:12.253Z,2.47
2022-09-25T06:52:13.851Z,3.25
2022-09-25T06:54:15.483Z,3.10
2022-09-25T06:56:17.068Z,3.15
2022-09-25T06:58:21.734Z,2.90
2022-09-25T07:00:23.351Z,3.13
2022-09-25T07:02:43.501Z,2.53
2022-09-25T07:04:45.116Z,3.10
2022-09-25T07:06:47.143Z,2.70
2022-09-25T07:08:50.133Z,2.78
2022-09-25T07:10:54.280Z,2.53
2022-09-25T07:12:55.872Z,2.90
2022-09-25T07:14:57.526Z,2.83
2022-09-25T07:16:59.124Z,2.53
2022-09-25T07:19:01.307Z,2.67
2022-09-25T07:21:06.065Z,3.53
2022-09-25T07:23:07.686Z,2.80
2022-09-25T07:25:10.229Z,2.80
2022-09-25T07:27:11.843Z,2.88
2022-09-25T07:29:13.597Z,2.83
2022-09-25T07:31:19.186Z,3.05
2022-09-25T07:33:24.982Z,2.80
2022-09-25T07:35:27.177Z,3.20
2022-09-25T07:37:28.859Z,2.85
2022-09-25T07:39:30.454Z,2.60
2022-09-25T07:41:32.528Z,2.78
2022-09-25T07:43:35.081Z,2.78
2022-09-25T07:45:36.783Z,2.50
2022-09-25T07:47:38.366Z,2.20
2022-09-25T07:49:40.284Z,2.90
2022-09-25T07:51:41.909Z,2.65
2022-09-25T07:53:44.078Z,2.92
2022-09-25T07:55:46.731Z,2.67
2022-09-25T07:57:50.469Z,3.13
2022-09-25T07:59:52.052Z,2.53
2022-09-25T08:01:54.287Z,2.92
2022-09-25T08:03:56.085Z,2.35
2022-09-25T08:06:06.047Z,2.83
2022-09-25T08:08:07.710Z,2.28
2022-09-25T08:10:09.545Z,2.22
2022-09-25T08:12:12.900Z,2.45
2022-09-25T08:14:14.732Z,2.10
2022-09-25T08:16:18.220Z,2.10
2022-09-25T08:18:19.944Z,2.30
2022-09-25T08:20:21.620Z,1.83
2022-09-25T08:22:23.689Z,3.00
2022-09-25T08:24:25.312Z,2.30
2022-09-25T08:26:28.943Z,2.13
2022-09-25T08:28:30.699Z,2.40
2022-09-25T08:30:32.797Z,2.60
2022-09-25T08:32:34.842Z,2.45
2022-09-25T08:34:41.067Z,1.90
2022-09-25T08:36:43.535Z,2.33
2022-09-25T08:38:45.586Z,2.30
2022-09-25T08:40:56.655Z,2.35
2022-09-25T08:42:59.381Z,2.15
2022-09-25T08:45:23.878Z,2.17
2022-09-25T08:47:50.717Z,2.30
2022-09-25T08:50:11.437Z,1.75
2022-09-25T08:52:18.231Z,1.88
2022-09-25T08:54:27.136Z,1.95
2022-09-25T08:56:29.967Z,2.30
2022-09-25T08:58:35.076Z,1.77
2022-09-25T09:00:37.829Z,1.70
2022-09-25T09:02:46.850Z,1.85
2022-09-25T09:04:58.609Z,1.70
2022-09-25T09:07:28.634Z,1.73
2022-09-25T09:09:39.075Z,1.90
2022-09-25T09:11:58.123Z,1.83
2022-09-25T09:14:04.644Z,1.73
2022-09-25T09:16:28.663Z,1.52
2022-09-25T09:18:32.586Z,2.13
2022-09-25T09:20:49.553Z,2.20
2022-09-25T09:22:53.220Z,1.48
2022-09-25T09:25:06.609Z,1.70
2022-09-25T09:27:26.884Z,1.92
2022-09-25T09:30:07.396Z,1.83
2022-09-25T09:32:32.166Z,1.70
2022-09-25T09:35:05.846Z,1.83
2022-09-25T09:37:43.293Z,1.85
2022-09-25T09:40:12.432Z,1.48
2022-09-25T09:42:34.533Z,1.80
2022-09-25T09:44:53.578Z,1.90
2022-09-25T09:47:03.064Z,1.65
2022-09-25T09:49:10.873Z,1.65
2022-09-25T09:51:19.197Z,1.50
2022-09-25T09:53:28.014Z,1.80
2022-09-25T09:55:42.160Z,1.80
2022-09-25T09:57:56.195Z,1.33
2022-09-25T10:00:05.921Z,1.60
2022-09-25T10:02:44.370Z,1.50
2022-09-25T10:04:49.361Z,1.70
2022-09-25T10:06:57.968Z,1.33
2022-09-25T10:08:59.823Z,1.60
2022-09-25T10:11:15.626Z,1.60
2022-09-25T10:13:25.114Z,1.60
2022-09-25T10:16:04.701Z,1.40
2022-09-25T10:18:06.701Z,1.73
2022-09-25T10:20:21.712Z,1.48
2022-09-25T10:22:28.916Z,1.48
2022-09-25T10:25:01.894Z,1.77
2022-09-25T10:27:28.460Z,1.63
2022-09-25T10:29:30.064Z,1.50
2022-09-25T10:31:35.591Z,1.40
2022-09-25T10:33:37.521Z,1.50
2022-09-25T10:35:39.094Z,1.58
2022-09-25T10:37:41.123Z,1.42
2022-09-25T10:39:45.540Z,1.50
2022-09-25T10:41:47.539Z,1.65
2022-09-25T10:44:01.058Z,1.75
2022-09-25T10:46:13.901Z,1.52
2022-09-25T10:48:53.173Z,1.52
2022-09-25T10:51:08.798Z,1.73
2022-09-25T10:53:29.961Z,1.40
2022-09-25T10:55:37.432Z,1.60
2022-09-25T10:57:39.319Z,1.70
2022-09-25T10:59:50.162Z,1.35
2022-09-25T11:01:54.765Z,1.70
2022-09-25T11:03:58.240Z,1.50
2022-09-25T11:06:09.148Z,1.73
2022-09-25T11:08:15.327Z,1.50
2022-09-25T11:10:22.038Z,1.92
2022-09-25T11:12:26.922Z,1.52
2022-09-25T11:14:35.226Z,1.60
2022-09-25T11:16:55.196Z,1.48
2022-09-25T11:19:12.281Z,1.50
2022-09-25T11:21:33.532Z,1.38
2022-09-25T11:26:08.284Z,1.70
2022-09-25T11:28:35.242Z,1.67
2022-09-25T11:30:49.502Z,1.40
2022-09-25T11:33:10.975Z,1.52
2022-09-25T11:35:33.500Z,1.50
2022-09-25T11:38:02.394Z,1.85
2022-09-25T11:40:28.680Z,1.65
2022-09-25T11:43:04.487Z,1.58
2022-09-25T11:45:46.356Z,1.58
2022-09-25T11:48:03.079Z,1.55
2022-09-25T11:50:09.165Z,1.70
2022-09-25T11:52:40.024Z,1.70
2022-09-25T11:55:11.712Z,1.92
2022-09-25T11:57:34.401Z,1.83
2022-09-25T11:59:39.352Z,1.50
2022-09-25T12:02:09.344Z,1.80
2022-09-25T12:04:42.110Z,1.63
2022-09-25T12:07:22.893Z,1.65
2022-09-25T12:09:43.143Z,1.88
2022-09-25T12:12:09.111Z,2.80
2022-09-25T12:14:25.297Z,2.60
2022-09-25T12:16:50.330Z,1.83
2022-09-25T12:19:09.349Z,2.13
2022-09-25T12:21:17.837Z,2.03
2022-09-25T12:23:36.338Z,1.98
2022-09-25T12:25:50.611Z,2.42
2022-09-25T12:28:04.073Z,2.10
2022-09-25T12:30:15.707Z,1.95
2022-09-25T12:32:53.611Z,2.05
2022-09-25T12:35:33.698Z,2.10
2022-09-25T12:38:23.447Z,2.30
2022-09-25T12:40:31.191Z,2.10
2022-09-25T12:43:07.988Z,2.08
2022-09-25T12:45:25.503Z,2.47
2022-09-25T12:47:33.308Z,2.40
2022-09-25T12:50:08.345Z,2.38
2022-09-25T12:52:15.841Z,1.98
2022-09-25T12:54:35.399Z,2.38
2022-09-25T12:56:57.678Z,2.20
2022-09-25T12:59:17.617Z,2.30
2022-09-25T13:02:16.260Z,2.33
2022-09-25T13:04:46.077Z,3.03
2022-09-25T13:07:01.367Z,2.95
2022-09-25T13:09:39.421Z,2.65
2022-09-25T13:11:47.883Z,2.75
2022-09-25T13:13:53.983Z,2.80
2022-09-25T13:16:00.715Z,2.85
2022-09-25T13:18:04.692Z,2.85
2022-09-25T13:20:28.462Z,3.28
2022-09-25T13:22:34.831Z,2.85
2022-09-25T13:24:52.440Z,3.35
2022-09-25T13:26:56.660Z,3.20
2022-09-25T13:29:07.405Z,2.83
2022-09-25T13:31:09.918Z,2.83
2022-09-25T13:33:20.052Z,2.40
2022-09-25T13:35:23.656Z,2.88
2022-09-25T13:37:31.814Z,2.90
2022-09-25T13:40:03.406Z,3.13
2022-09-25T13:42:21.344Z,3.40
2022-09-25T13:44:44.449Z,3.17
2022-09-25T13:46:46.035Z,3.50
2022-09-25T13:48:48.695Z,3.55
2022-09-25T13:51:22.493Z,2.95
2022-09-25T13:53:27.101Z,3.13
2022-09-25T13:55:32.029Z,3.40
2022-09-25T13:57:58.609Z,3.63
2022-09-25T14:00:05.846Z,3.20
2022-09-25T14:02:38.853Z,3.10
2022-09-25T14:04:40.493Z,3.47
2022-09-25T14:06:44.888Z,3.42
2022-09-25T14:08:47.968Z,3.72
2022-09-25T14:10:54.666Z,2.83
2022-09-25T14:12:56.304Z,3.28
2022-09-25T14:15:01.405Z,3.58
2022-09-25T14:17:04.242Z,3.22
2022-09-25T14:19:08.231Z,3.75
2022-09-25T14:21:13.326Z,2.88
2022-09-25T14:23:27.164Z,3.42
2022-09-25T14:25:37.464Z,3.88
2022-09-25T14:27:39.068Z,3.25
2022-09-25T14:29:40.962Z,3.30
2022-09-25T14:32:01.391Z,2.65
2022-09-25T14:34:28.133Z,3.20
2022-09-25T14:36:36.013Z,3.05
2022-09-25T14:39:06.420Z,3.22
2022-09-25T14:41:35.712Z,2.60
2022-09-25T14:43:57.571Z,3.30
2022-09-25T14:46:02.757Z,3.38
2022-09-25T14:48:11.946Z,3.67
2022-09-25T14:50:45.125Z,3.80
2022-09-25T14:52:48.235Z,3.35
2022-09-25T14:54:54.242Z,3.70
2022-09-25T14:56:57.337Z,4.45
2022-09-25T14:59:03.247Z,4.20
2022-09-25T15:01:22.891Z,3.75
2022-09-25T15:03:31.004Z,3.75
2022-09-25T15:05:34.184Z,3.58
2022-09-25T15:07:42.471Z,4.07
2022-09-25T15:09:48.698Z,3.75
2022-09-25T15:11:54.568Z,3.67
2022-09-25T15:14:16.309Z,3.40
2022-09-25T15:16:43.705Z,4.03
2022-09-25T15:18:54.127Z,3.72
2022-09-25T15:20:56.122Z,3.67
2022-09-25T15:23:14.752Z,4.28
2022-09-25T15:25:24.010Z,4.05
2022-09-25T15:27:27.615Z,4.13
2022-09-25T15:29:33.400Z,3.60
2022-09-25T15:31:37.523Z,3.85
2022-09-25T15:33:40.431Z,3.83
2022-09-25T15:35:42.036Z,3.42
2022-09-25T15:37:44.977Z,3.30
2022-09-25T15:39:47.000Z,3.45
2022-09-25T15:41:48.932Z,3.90
2022-09-25T15:43:53.905Z,3.35
2022-09-25T15:46:07.820Z,4.40
2022-09-25T15:48:33.254Z,3.20
2022-09-25T15:50:35.524Z,3.30
2022-09-25T15:52:38.313Z,3.58
2022-09-25T15:54:44.632Z,3.38
2022-09-25T15:56:50.305Z,4.15
2022-09-25T15:58:58.645Z,3.15
2022-09-25T16:01:20.706Z,3.50
2022-09-25T16:03:44.612Z,3.97
2022-09-25T16:05:49.105Z,3.70
2022-09-25T16:07:50.727Z,3.22
2022-09-25T16:10:21.741Z,3.60
2022-09-25T16:12:27.309Z,3.33
2022-09-25T16:14:30.093Z,3.30
2022-09-25T16:16:32.188Z,3.83
2022-09-25T16:18:40.860Z,3.67
2022-09-25T16:20:42.624Z,4.25
2022-09-25T16:22:54.240Z,4.20
2022-09-25T16:24:55.936Z,4.10
2022-09-25T16:27:03.244Z,3.63
2022-09-25T16:29:44.092Z,3.75
2022-09-25T16:31:46.888Z,3.65
2022-09-25T16:33:51.800Z,3.70
2022-09-25T16:36:16.099Z,3.63
2022-09-25T16:38:38.174Z,3.75
2022-09-25T16:40:39.805Z,3.75
2022-09-25T16:42:42.236Z,3.72
2022-09-25T16:44:46.753Z,3.15
2022-09-25T16:46:52.100Z,3.60
2022-09-25T16:49:01.441Z,3.63
2022-09-25T16:51:05.292Z,3.30
2022-09-25T16:53:06.950Z,3.83
2022-09-25T16:55:15.291Z,3.58
2022-09-25T16:57:17.148Z,3.45
2022-09-25T16:59:24.346Z,3.33
2022-09-25T17:01:28.132Z,3.20
2022-09-25T17:03:49.467Z,3.38
2022-09-25T17:05:51.131Z,3.22
2022-09-25T17:07:55.437Z,3.10
2022-09-25T17:09:58.806Z,3.10
2022-09-25T17:12:07.423Z,3.58
2022-09-25T17:14:21.485Z,3.40
2022-09-25T17:16:23.130Z,3.55
2022-09-25T17:18:24.769Z,3.35
2022-09-25T17:20:27.985Z,3.20
2022-09-25T17:22:31.014Z,3.88
2022-09-25T17:24:32.640Z,3.35
2022-09-25T17:26:34.729Z,3.42
2022-09-25T17:28:36.327Z,3.00
2022-09-25T17:30:38.939Z,3.35
2022-09-25T17:32:44.622Z,3.13
2022-09-25T17:34:46.651Z,3.58
2022-09-25T17:36:48.264Z,3.20
2022-09-25T17:38:49.876Z,3.10
2022-09-25T17:40:53.040Z,3.28
2022-09-25T17:42:54.711Z,3.55
2022-09-25T17:44:57.433Z,3.80
2022-09-25T17:46:59.474Z,3.30
2022-09-25T17:49:01.234Z,3.05
2022-09-25T17:51:15.175Z,3.28
2022-09-25T17:53:19.321Z,3.08
2022-09-25T17:55:21.672Z,3.00
2022-09-25T17:57:23.315Z,2.95
2022-09-25T17:59:25.030Z,2.75
2022-09-25T18:01:29.258Z,3.38
2022-09-25T18:03:31.047Z,3.17
2022-09-25T18:05:33.042Z,2.78
2022-09-25T18:07:34.647Z,2.65
2022-09-25T18:09:36.232Z,2.67
2022-09-25T18:11:44.068Z,2.53
2022-09-25T18:13:46.375Z,2.63
2022-09-25T18:15:49.383Z,2.72
2022-09-25T18:17:51.075Z,2.40
2022-09-25T18:20:11.356Z,2.75
2022-09-25T18:22:20.565Z,3.30
2022-09-25T18:24:22.178Z,3.10
2022-09-25T18:26:26.786Z,3.35
2022-09-25T18:28:31.048Z,3.80
2022-09-25T18:30:32.888Z,3.67
2022-09-25T18:32:34.725Z,4.00
2022-09-25T18:34:36.360Z,3.00
2022-09-25T18:36:38.149Z,3.53
2022-09-25T18:38:39.781Z,3.63
2022-09-25T18:40:41.569Z,3.63
2022-09-25T18:42:43.650Z,3.33
2022-09-25T18:44:45.361Z,4.30
2022-09-25T18:46:47.032Z,3.15
2022-09-25T18:48:48.945Z,4.00
2022-09-25T18:50:50.839Z,3.60
2022-09-25T18:52:52.699Z,3.92
2022-09-25T18:54:54.453Z,3.65
2022-09-25T18:56:58.343Z,3.47
2022-09-25T18:59:00.643Z,4.22
2022-09-25T19:01:02.381Z,3.75
2022-09-25T19:03:04.273Z,3.70
2022-09-25T19:05:07.080Z,3.63
2022-09-25T19:07:09.130Z,3.70
2022-09-25T19:09:16.220Z,3.13
2022-09-25T19:11:18.444Z,3.15
2022-09-25T19:13:20.038Z,3.15
2022-09-25T19:15:21.805Z,3.40
2022-09-25T19:17:23.387Z,3.53
2022-09-25T19:19:24.990Z,3.05
2022-09-25T19:21:27.342Z,3.38
2022-09-25T19:23:29.137Z,2.78
2022-09-25T19:25:30.720Z,4.05
2022-09-25T19:27:32.731Z,3.65
2022-09-25T19:29:37.519Z,3.33
2022-09-25T19:31:39.271Z,3.15
2022-09-25T19:33:40.912Z,3.60
2022-09-25T19:35:42.500Z,3.80
2022-09-25T19:37:44.096Z,3.70
2022-09-25T19:40:04.805Z,3.72
2022-09-25T19:42:06.409Z,3.47
2022-09-25T19:44:13.130Z,3.45
2022-09-25T19:46:19.784Z,3.60
2022-09-25T19:48:23.173Z,3.80
2022-09-25T19:50:25.250Z,4.00
2022-09-25T19:52:27.111Z,4.25
2022-09-25T19:54:29.481Z,3.90
2022-09-25T19:56:31.100Z,3.70
2022-09-25T19:58:35.324Z,3.50
2022-09-25T20:00:41.280Z,4.10
2022-09-25T20:02:46.860Z,3.80
2022-09-25T20:04:48.774Z,3.75
2022-09-25T20:06:50.410Z,3.90
2022-09-25T20:09:01.053Z,3.50
2022-09-25T20:11:19.638Z,3.65
2022-09-25T20:13:21.303Z,3.58
2022-09-25T20:15:22.891Z,4.03
2022-09-25T20:17:24.515Z,3.50
2022-09-25T20:19:26.617Z,3.10
2022-09-25T20:21:32.665Z,3.42
2022-09-25T20:23:35.500Z,3.33
2022-09-25T20:25:37.264Z,3.35
2022-09-25T20:27:38.909Z,2.70
2022-09-25T20:29:40.530Z,3.10
2022-09-25T20:31:43.699Z,3.75
2022-09-25T20:33:45.321Z,3.88
2022-09-25T20:35:46.998Z,2.60
2022-09-25T20:37:48.821Z,3.20
2022-09-25T20:39:50.547Z,3.42
2022-09-25T20:41:52.129Z,3.25
2022-09-25T20:43:57.852Z,3.22
2022-09-25T20:46:04.269Z,3.10
2022-09-25T20:48:05.968Z,3.05
2022-09-25T20:50:07.903Z,2.92
2022-09-25T20:52:12.309Z,3.08
2022-09-25T20:54:14.179Z,3.40
2022-09-25T20:56:16.429Z,2.90
2022-09-25T20:58:18.527Z,3.30
2022-09-25T21:00:20.164Z,3.17
2022-09-25T21:02:21.837Z,3.28
2022-09-25T21:04:23.504Z,2.90
2022-09-25T21:06:28.057Z,3.25
2022-09-25T21:08:31.235Z,3.00
2022-09-25T21:10:37.100Z,2.78
2022-09-25T21:12:38.690Z,2.85
2022-09-25T21:14:40.536Z,3.20
2022-09-25T21:16:42.442Z,2.38
2022-09-25T21:18:44.244Z,2.50
2022-09-25T21:20:45.818Z,2.80
2022-09-25T21:22:47.880Z,3.00
2022-09-25T21:24:49.973Z,2.50
2022-09-25T21:26:51.626Z,2.53
2022-09-25T21:28:55.528Z,2.92
2022-09-25T21:31:09.357Z,3.20
2022-09-25T21:33:10.979Z,2.42
2022-09-25T21:35:12.696Z,2.92
2022-09-25T21:37:14.281Z,2.10
2022-09-25T21:39:16.212Z,2.50
2022-09-25T21:41:20.860Z,2.72
2022-09-25T21:43:22.482Z,2.35
2022-09-25T21:45:24.099Z,2.60
2022-09-25T21:47:26.415Z,2.28
2022-09-25T21:49:28.020Z,2.80
2022-09-25T21:51:34.837Z,2.65
2022-09-25T21:53:37.652Z,2.15
2022-09-25T21:55:40.531Z,2.40
2022-09-25T21:57:42.229Z,2.25
2022-09-25T21:59:43.819Z,2.30
2022-09-25T22:01:45.457Z,2.25
2022-09-25T22:03:49.828Z,2.53
2022-09-25T22:05:58.676Z,2.03
2022-09-25T22:08:00.520Z,2.08
2022-09-25T22:10:02.184Z,2.10
2022-09-25T22:12:04.223Z,2.00
2022-09-25T22:14:06.358Z,2.17
2022-09-25T22:16:10.872Z,2.25
2022-09-25T22:18:12.500Z,2.53
2022-09-25T22:20:14.604Z,2.10
2022-09-25T22:22:16.219Z,2.83
2022-09-25T22:24:18.100Z,2.80
2022-09-25T22:26:21.451Z,2.30
2022-09-25T22:28:23.064Z,2.28
2022-09-25T22:30:24.771Z,2.15
2022-09-25T22:32:26.420Z,1.95
2022-09-25T22:34:29.305Z,2.30
2022-09-25T22:36:31.917Z,2.20
2022-09-25T22:38:35.078Z,2.15
2022-09-25T22:40:38.842Z,2.08
2022-09-25T22:42:40.531Z,2.28
2022-09-25T22:44:42.121Z,2.03
2022-09-25T22:46:43.876Z,2.00
2022-09-25T22:48:45.627Z,2.05
2022-09-25T22:50:59.403Z,2.00
2022-09-25T22:53:00.979Z,1.90
2022-09-25T22:55:03.099Z,2.10
2022-09-25T22:57:04.677Z,1.90
2022-09-25T22:59:10.120Z,2.08
2022-09-25T23:01:17.514Z,1.88
2022-09-25T23:03:20.202Z,1.95
2022-09-25T23:05:21.836Z,1.80
2022-09-25T23:07:23.509Z,2.03
2022-09-25T23:09:28.373Z,1.45
2022-09-25T23:11:30.519Z,1.80
2022-09-25T23:13:32.950Z,2.22
2022-09-25T23:15:39.306Z,1.80
2022-09-25T23:17:40.917Z,2.00
2022-09-25T23:19:42.529Z,1.98
2022-09-25T23:21:44.239Z,2.00
2022-09-25T23:23:45.922Z,1.90
2022-09-25T23:25:47.587Z,1.83
2022-09-25T23:27:50.265Z,1.95
2022-09-25T23:29:51.886Z,2.15
2022-09-25T23:31:53.489Z,1.92
2022-09-25T23:33:55.932Z,1.75
2022-09-25T23:36:03.341Z,1.90
2022-09-25T23:38:04.926Z,1.77
2022-09-25T23:40:07.197Z,1.85
2022-09-25T23:42:08.783Z,1.70
2022-09-25T23:44:11.514Z,2.03
2022-09-25T23:46:15.548Z,1.80
2022-09-25T23:48:17.482Z,1.60
2022-09-25T23:50:19.149Z,1.70
2022-09-25T23:52:20.808Z,2.13
2022-09-25T23:54:22.416Z,1.52
2022-09-25T23:56:27.065Z,1.58
2022-09-25T23:58:30.683Z,1.80
